sensor_id;sensor_type;location;lat;lon;timestamp;temperature;humidity
18779;DHT22;9518;51.720;14.384;2023-05-07T00:01:42;8.40;99.90
18779;DHT22;9518;51.720;14.384;2023-05-07T00:04:10;8.40;99.90
18779;DHT22;9518;51.720;14.384;2023-05-07T00:06:36;8.40;99.90
18779;DHT22;9518;51.720;14.384;2023-05-07T00:09:04;8.30;99.90
18779;DHT22;9518;51.720;14.384;2023-05-07T00:11:31;8.30;99.90
18779;DHT22;9518;51.720;14.384;2023-05-07T00:14:00;8.30;99.90
18779;DHT22;9518;51.720;14.384;2023-05-07T00:16:27;8.30;99.90
18779;DHT22;9518;51.720;14.384;2023-05-07T00:18:54;8.30;99.90
18779;DHT22;9518;51.720;14.384;2023-05-07T00:21:22;8.30;99.90
18779;DHT22;9518;51.720;14.384;2023-05-07T00:23:52;8.30;99.90
18779;DHT22;9518;51.720;14.384;2023-05-07T00:26:19;8.30;99.90
18779;DHT22;9518;51.720;14.384;2023-05-07T00:28:46;8.30;99.90
18779;DHT22;9518;51.720;14.384;2023-05-07T00:31:14;8.20;99.90
18779;DHT22;9518;51.720;14.384;2023-05-07T00:33:41;8.30;99.90
18779;DHT22;9518;51.720;14.384;2023-05-07T00:36:08;8.20;99.90
18779;DHT22;9518;51.720;14.384;2023-05-07T00:38:36;8.20;99.90
18779;DHT22;9518;51.720;14.384;2023-05-07T00:41:03;8.30;99.90
18779;DHT22;9518;51.720;14.384;2023-05-07T00:43:33;8.20;99.90
18779;DHT22;9518;51.720;14.384;2023-05-07T00:46:00;8.30;99.90
18779;DHT22;9518;51.720;14.384;2023-05-07T00:48:30;8.30;99.90
18779;DHT22;9518;51.720;14.384;2023-05-07T00:50:57;8.20;99.90
18779;DHT22;9518;51.720;14.384;2023-05-07T00:53:25;8.20;99.90
18779;DHT22;9518;51.720;14.384;2023-05-07T00:55:52;8.30;99.90
18779;DHT22;9518;51.720;14.384;2023-05-07T00:58:20;8.20;99.90
18779;DHT22;9518;51.720;14.384;2023-05-07T01:00:48;8.20;99.90
18779;DHT22;9518;51.720;14.384;2023-05-07T01:03:15;8.20;99.90
18779;DHT22;9518;51.720;14.384;2023-05-07T01:05:45;8.20;99.90
18779;DHT22;9518;51.720;14.384;2023-05-07T01:08:13;8.20;99.90
18779;DHT22;9518;51.720;14.384;2023-05-07T01:10:41;8.20;99.90
18779;DHT22;9518;51.720;14.384;2023-05-07T01:13:09;8.20;99.90
18779;DHT22;9518;51.720;14.384;2023-05-07T01:15:37;8.20;99.90
18779;DHT22;9518;51.720;14.384;2023-05-07T01:18:06;8.20;99.90
18779;DHT22;9518;51.720;14.384;2023-05-07T01:20:33;8.20;99.90
18779;DHT22;9518;51.720;14.384;2023-05-07T01:23:03;8.20;99.90
18779;DHT22;9518;51.720;14.384;2023-05-07T01:25:31;8.20;99.90
18779;DHT22;9518;51.720;14.384;2023-05-07T01:27:58;8.20;99.90
18779;DHT22;9518;51.720;14.384;2023-05-07T01:30:27;8.20;99.90
18779;DHT22;9518;51.720;14.384;2023-05-07T01:32:58;8.20;99.90
18779;DHT22;9518;51.720;14.384;2023-05-07T01:35:29;8.20;99.90
18779;DHT22;9518;51.720;14.384;2023-05-07T01:37:57;8.20;99.90
18779;DHT22;9518;51.720;14.384;2023-05-07T01:40:26;8.10;99.90
18779;DHT22;9518;51.720;14.384;2023-05-07T01:42:54;8.10;99.90
18779;DHT22;9518;51.720;14.384;2023-05-07T01:45:21;8.20;99.90
18779;DHT22;9518;51.720;14.384;2023-05-07T01:47:52;8.10;99.90
18779;DHT22;9518;51.720;14.384;2023-05-07T01:50:20;8.10;99.90
18779;DHT22;9518;51.720;14.384;2023-05-07T01:52:49;8.10;99.90
18779;DHT22;9518;51.720;14.384;2023-05-07T01:55:17;8.10;99.90
18779;DHT22;9518;51.720;14.384;2023-05-07T01:57:45;8.20;99.90
18779;DHT22;9518;51.720;14.384;2023-05-07T02:00:12;8.20;99.90
18779;DHT22;9518;51.720;14.384;2023-05-07T02:02:39;8.20;99.90
18779;DHT22;9518;51.720;14.384;2023-05-07T02:05:07;8.20;99.90
18779;DHT22;9518;51.720;14.384;2023-05-07T02:07:34;8.20;99.90
18779;DHT22;9518;51.720;14.384;2023-05-07T02:10:01;8.20;99.90
18779;DHT22;9518;51.720;14.384;2023-05-07T02:12:28;8.20;99.90
18779;DHT22;9518;51.720;14.384;2023-05-07T02:14:57;8.20;99.90
18779;DHT22;9518;51.720;14.384;2023-05-07T02:17:24;8.20;99.90
18779;DHT22;9518;51.720;14.384;2023-05-07T02:19:51;8.20;99.90
18779;DHT22;9518;51.720;14.384;2023-05-07T02:22:18;8.20;99.90
18779;DHT22;9518;51.720;14.384;2023-05-07T02:24:45;8.20;99.90
18779;DHT22;9518;51.720;14.384;2023-05-07T02:27:12;8.20;99.90
18779;DHT22;9518;51.720;14.384;2023-05-07T02:29:39;8.20;99.90
18779;DHT22;9518;51.720;14.384;2023-05-07T02:32:08;8.20;99.90
18779;DHT22;9518;51.720;14.384;2023-05-07T02:34:35;8.20;99.90
18779;DHT22;9518;51.720;14.384;2023-05-07T02:37:02;8.20;99.90
18779;DHT22;9518;51.720;14.384;2023-05-07T02:39:29;8.20;99.90
18779;DHT22;9518;51.720;14.384;2023-05-07T02:41:56;8.20;99.90
18779;DHT22;9518;51.720;14.384;2023-05-07T02:44:23;8.20;99.90
18779;DHT22;9518;51.720;14.384;2023-05-07T02:46:50;8.20;99.90
18779;DHT22;9518;51.720;14.384;2023-05-07T02:49:18;8.20;99.90
18779;DHT22;9518;51.720;14.384;2023-05-07T02:51:46;8.20;99.90
18779;DHT22;9518;51.720;14.384;2023-05-07T02:54:13;8.20;99.90
18779;DHT22;9518;51.720;14.384;2023-05-07T02:56:40;8.20;99.90
18779;DHT22;9518;51.720;14.384;2023-05-07T02:59:07;8.20;99.90
18779;DHT22;9518;51.720;14.384;2023-05-07T03:01:36;8.20;99.90
18779;DHT22;9518;51.720;14.384;2023-05-07T03:04:03;8.20;99.90
18779;DHT22;9518;51.720;14.384;2023-05-07T03:06:31;8.20;99.90
18779;DHT22;9518;51.720;14.384;2023-05-07T03:08:58;8.20;99.90
18779;DHT22;9518;51.720;14.384;2023-05-07T03:11:25;8.20;99.90
18779;DHT22;9518;51.720;14.384;2023-05-07T03:13:52;8.20;99.90
18779;DHT22;9518;51.720;14.384;2023-05-07T03:16:19;8.20;99.90
18779;DHT22;9518;51.720;14.384;2023-05-07T03:18:46;8.20;99.90
18779;DHT22;9518;51.720;14.384;2023-05-07T03:21:14;8.20;99.90
18779;DHT22;9518;51.720;14.384;2023-05-07T03:23:42;8.20;99.90
18779;DHT22;9518;51.720;14.384;2023-05-07T03:26:09;8.20;99.90
18779;DHT22;9518;51.720;14.384;2023-05-07T03:28:36;8.20;99.90
18779;DHT22;9518;51.720;14.384;2023-05-07T03:31:04;8.20;99.90
18779;DHT22;9518;51.720;14.384;2023-05-07T03:33:33;8.10;99.90
18779;DHT22;9518;51.720;14.384;2023-05-07T03:36:00;8.10;99.90
18779;DHT22;9518;51.720;14.384;2023-05-07T03:38:27;8.20;99.90
18779;DHT22;9518;51.720;14.384;2023-05-07T03:40:55;8.20;99.90
18779;DHT22;9518;51.720;14.384;2023-05-07T03:43:23;8.10;99.90
18779;DHT22;9518;51.720;14.384;2023-05-07T03:45:50;8.20;99.90
18779;DHT22;9518;51.720;14.384;2023-05-07T03:48:17;8.20;99.90
18779;DHT22;9518;51.720;14.384;2023-05-07T03:50:44;8.10;99.90
18779;DHT22;9518;51.720;14.384;2023-05-07T03:53:11;8.10;99.90
18779;DHT22;9518;51.720;14.384;2023-05-07T03:55:38;8.10;99.90
18779;DHT22;9518;51.720;14.384;2023-05-07T03:58:06;8.10;99.90
18779;DHT22;9518;51.720;14.384;2023-05-07T04:00:33;8.10;99.90
18779;DHT22;9518;51.720;14.384;2023-05-07T04:03:03;8.10;99.90
18779;DHT22;9518;51.720;14.384;2023-05-07T04:05:30;8.10;99.90
18779;DHT22;9518;51.720;14.384;2023-05-07T04:07:58;8.10;99.90
18779;DHT22;9518;51.720;14.384;2023-05-07T04:10:25;8.10;99.90
18779;DHT22;9518;51.720;14.384;2023-05-07T04:12:54;8.10;99.90
18779;DHT22;9518;51.720;14.384;2023-05-07T04:15:23;8.10;99.90
18779;DHT22;9518;51.720;14.384;2023-05-07T04:17:51;8.10;99.90
18779;DHT22;9518;51.720;14.384;2023-05-07T04:20:19;8.10;99.90
18779;DHT22;9518;51.720;14.384;2023-05-07T04:22:46;8.10;99.90
18779;DHT22;9518;51.720;14.384;2023-05-07T04:25:13;8.10;99.90
18779;DHT22;9518;51.720;14.384;2023-05-07T04:27:41;8.10;99.90
18779;DHT22;9518;51.720;14.384;2023-05-07T04:30:08;8.20;99.90
18779;DHT22;9518;51.720;14.384;2023-05-07T04:32:37;8.10;99.90
18779;DHT22;9518;51.720;14.384;2023-05-07T04:35:05;8.10;99.90
18779;DHT22;9518;51.720;14.384;2023-05-07T04:37:32;8.10;99.90
18779;DHT22;9518;51.720;14.384;2023-05-07T04:39:59;8.20;99.90
18779;DHT22;9518;51.720;14.384;2023-05-07T04:42:28;8.20;99.90
18779;DHT22;9518;51.720;14.384;2023-05-07T04:44:55;8.20;99.90
18779;DHT22;9518;51.720;14.384;2023-05-07T04:47:22;8.20;99.90
18779;DHT22;9518;51.720;14.384;2023-05-07T04:49:51;8.20;99.90
18779;DHT22;9518;51.720;14.384;2023-05-07T04:52:18;8.20;99.90
18779;DHT22;9518;51.720;14.384;2023-05-07T04:54:45;8.20;99.90
18779;DHT22;9518;51.720;14.384;2023-05-07T04:57:12;8.30;99.90
18779;DHT22;9518;51.720;14.384;2023-05-07T04:59:39;8.20;99.90
18779;DHT22;9518;51.720;14.384;2023-05-07T05:02:06;8.30;99.90
18779;DHT22;9518;51.720;14.384;2023-05-07T05:04:33;8.20;99.90
18779;DHT22;9518;51.720;14.384;2023-05-07T05:07:01;8.20;99.90
18779;DHT22;9518;51.720;14.384;2023-05-07T05:09:30;8.30;99.90
18779;DHT22;9518;51.720;14.384;2023-05-07T05:11:57;8.20;99.90
18779;DHT22;9518;51.720;14.384;2023-05-07T05:14:24;8.30;99.90
18779;DHT22;9518;51.720;14.384;2023-05-07T05:16:51;8.20;99.90
18779;DHT22;9518;51.720;14.384;2023-05-07T05:19:18;8.30;99.90
18779;DHT22;9518;51.720;14.384;2023-05-07T05:21:45;8.30;99.90
18779;DHT22;9518;51.720;14.384;2023-05-07T05:24:13;8.40;99.90
18779;DHT22;9518;51.720;14.384;2023-05-07T05:26:40;8.40;99.90
18779;DHT22;9518;51.720;14.384;2023-05-07T05:29:07;8.40;99.90
18779;DHT22;9518;51.720;14.384;2023-05-07T05:31:34;8.50;99.90
18779;DHT22;9518;51.720;14.384;2023-05-07T05:34:02;8.50;99.90
18779;DHT22;9518;51.720;14.384;2023-05-07T05:36:29;8.40;99.90
18779;DHT22;9518;51.720;14.384;2023-05-07T05:38:57;8.40;99.90
18779;DHT22;9518;51.720;14.384;2023-05-07T05:41:25;8.40;99.90
18779;DHT22;9518;51.720;14.384;2023-05-07T05:43:52;8.40;99.90
18779;DHT22;9518;51.720;14.384;2023-05-07T05:46:19;8.40;99.90
18779;DHT22;9518;51.720;14.384;2023-05-07T05:48:46;8.50;99.90
18779;DHT22;9518;51.720;14.384;2023-05-07T05:51:13;8.60;99.90
18779;DHT22;9518;51.720;14.384;2023-05-07T05:53:40;8.60;99.90
18779;DHT22;9518;51.720;14.384;2023-05-07T05:56:08;8.70;99.90
18779;DHT22;9518;51.720;14.384;2023-05-07T05:58:36;8.70;99.90
18779;DHT22;9518;51.720;14.384;2023-05-07T06:01:03;8.80;99.90
18779;DHT22;9518;51.720;14.384;2023-05-07T06:03:30;8.90;99.90
18779;DHT22;9518;51.720;14.384;2023-05-07T06:05:58;9.00;99.90
18779;DHT22;9518;51.720;14.384;2023-05-07T06:08:25;9.00;99.90
18779;DHT22;9518;51.720;14.384;2023-05-07T06:10:52;8.90;99.90
18779;DHT22;9518;51.720;14.384;2023-05-07T06:13:19;9.00;99.90
18779;DHT22;9518;51.720;14.384;2023-05-07T06:15:49;9.00;99.90
18779;DHT22;9518;51.720;14.384;2023-05-07T06:18:16;9.00;99.90
18779;DHT22;9518;51.720;14.384;2023-05-07T06:20:43;9.00;99.90
18779;DHT22;9518;51.720;14.384;2023-05-07T06:23:10;8.90;99.90
18779;DHT22;9518;51.720;14.384;2023-05-07T06:25:37;9.00;99.90
18779;DHT22;9518;51.720;14.384;2023-05-07T06:28:04;9.00;99.90
18779;DHT22;9518;51.720;14.384;2023-05-07T06:30:31;9.00;99.90
18779;DHT22;9518;51.720;14.384;2023-05-07T06:32:59;9.20;99.90
18779;DHT22;9518;51.720;14.384;2023-05-07T06:35:26;9.30;99.90
18779;DHT22;9518;51.720;14.384;2023-05-07T06:37:53;9.30;99.90
18779;DHT22;9518;51.720;14.384;2023-05-07T06:40:20;9.40;99.90
18779;DHT22;9518;51.720;14.384;2023-05-07T06:42:47;9.30;99.90
18779;DHT22;9518;51.720;14.384;2023-05-07T06:45:15;9.20;99.90
18779;DHT22;9518;51.720;14.384;2023-05-07T06:47:42;9.30;99.90
18779;DHT22;9518;51.720;14.384;2023-05-07T06:50:11;9.50;99.90
18779;DHT22;9518;51.720;14.384;2023-05-07T06:52:38;9.60;99.90
18779;DHT22;9518;51.720;14.384;2023-05-07T06:55:06;9.60;99.90
18779;DHT22;9518;51.720;14.384;2023-05-07T06:57:33;9.60;99.90
18779;DHT22;9518;51.720;14.384;2023-05-07T07:00:00;9.50;99.90
18779;DHT22;9518;51.720;14.384;2023-05-07T07:02:27;9.60;99.90
18779;DHT22;9518;51.720;14.384;2023-05-07T07:04:54;9.50;99.90
18779;DHT22;9518;51.720;14.384;2023-05-07T07:07:23;9.40;99.90
18779;DHT22;9518;51.720;14.384;2023-05-07T07:09:50;9.50;99.90
18779;DHT22;9518;51.720;14.384;2023-05-07T07:12:17;9.60;99.90
18779;DHT22;9518;51.720;14.384;2023-05-07T07:14:44;9.70;99.90
18779;DHT22;9518;51.720;14.384;2023-05-07T07:17:11;9.70;99.90
18779;DHT22;9518;51.720;14.384;2023-05-07T07:19:38;9.90;99.90
18779;DHT22;9518;51.720;14.384;2023-05-07T07:22:05;10.10;99.90
18779;DHT22;9518;51.720;14.384;2023-05-07T07:24:34;10.30;99.90
18779;DHT22;9518;51.720;14.384;2023-05-07T07:27:00;10.20;99.90
18779;DHT22;9518;51.720;14.384;2023-05-07T07:29:27;10.20;99.90
18779;DHT22;9518;51.720;14.384;2023-05-07T07:31:55;10.20;99.90
18779;DHT22;9518;51.720;14.384;2023-05-07T07:34:22;10.40;99.90
18779;DHT22;9518;51.720;14.384;2023-05-07T07:36:49;10.60;99.90
18779;DHT22;9518;51.720;14.384;2023-05-07T07:39:16;10.70;99.90
18779;DHT22;9518;51.720;14.384;2023-05-07T07:41:45;10.80;99.90
18779;DHT22;9518;51.720;14.384;2023-05-07T07:44:12;10.90;99.90
18779;DHT22;9518;51.720;14.384;2023-05-07T07:46:39;11.10;99.90
18779;DHT22;9518;51.720;14.384;2023-05-07T07:49:06;11.30;99.90
18779;DHT22;9518;51.720;14.384;2023-05-07T07:51:34;11.40;99.90
18779;DHT22;9518;51.720;14.384;2023-05-07T07:54:01;11.40;99.90
18779;DHT22;9518;51.720;14.384;2023-05-07T07:56:29;11.50;99.90
18779;DHT22;9518;51.720;14.384;2023-05-07T07:58:58;11.40;99.90
18779;DHT22;9518;51.720;14.384;2023-05-07T08:01:25;11.30;99.90
18779;DHT22;9518;51.720;14.384;2023-05-07T08:03:52;11.40;99.90
18779;DHT22;9518;51.720;14.384;2023-05-07T08:06:19;11.60;99.90
18779;DHT22;9518;51.720;14.384;2023-05-07T08:08:47;11.50;99.90
18779;DHT22;9518;51.720;14.384;2023-05-07T08:11:14;11.70;99.90
18779;DHT22;9518;51.720;14.384;2023-05-07T08:13:41;11.90;99.90
18779;DHT22;9518;51.720;14.384;2023-05-07T08:16:10;11.90;99.90
18779;DHT22;9518;51.720;14.384;2023-05-07T08:18:37;12.10;99.90
18779;DHT22;9518;51.720;14.384;2023-05-07T08:21:04;12.20;99.90
18779;DHT22;9518;51.720;14.384;2023-05-07T08:23:32;12.20;99.90
18779;DHT22;9518;51.720;14.384;2023-05-07T08:26:00;12.30;99.90
18779;DHT22;9518;51.720;14.384;2023-05-07T08:28:27;11.90;99.90
18779;DHT22;9518;51.720;14.384;2023-05-07T08:30:54;11.70;99.90
18779;DHT22;9518;51.720;14.384;2023-05-07T08:33:23;11.60;99.90
18779;DHT22;9518;51.720;14.384;2023-05-07T08:35:50;11.60;99.90
18779;DHT22;9518;51.720;14.384;2023-05-07T08:38:18;11.50;99.90
18779;DHT22;9518;51.720;14.384;2023-05-07T08:40:45;11.50;99.90
18779;DHT22;9518;51.720;14.384;2023-05-07T08:43:13;11.60;99.90
18779;DHT22;9518;51.720;14.384;2023-05-07T08:45:41;11.60;99.90
18779;DHT22;9518;51.720;14.384;2023-05-07T08:48:15;11.70;99.90
18779;DHT22;9518;51.720;14.384;2023-05-07T08:50:44;11.60;99.90
18779;DHT22;9518;51.720;14.384;2023-05-07T08:53:12;11.70;99.90
18779;DHT22;9518;51.720;14.384;2023-05-07T08:55:39;11.80;99.90
18779;DHT22;9518;51.720;14.384;2023-05-07T08:58:07;11.80;99.90
18779;DHT22;9518;51.720;14.384;2023-05-07T09:00:36;11.90;99.90
18779;DHT22;9518;51.720;14.384;2023-05-07T09:03:04;11.90;99.90
18779;DHT22;9518;51.720;14.384;2023-05-07T09:05:32;12.30;99.90
18779;DHT22;9518;51.720;14.384;2023-05-07T09:08:02;12.90;99.90
18779;DHT22;9518;51.720;14.384;2023-05-07T09:10:29;13.30;99.90
18779;DHT22;9518;51.720;14.384;2023-05-07T09:12:59;13.50;99.90
18779;DHT22;9518;51.720;14.384;2023-05-07T09:15:27;13.30;99.90
18779;DHT22;9518;51.720;14.384;2023-05-07T09:17:59;13.40;99.90
18779;DHT22;9518;51.720;14.384;2023-05-07T09:20:29;13.20;99.90
18779;DHT22;9518;51.720;14.384;2023-05-07T09:22:56;13.00;99.90
18779;DHT22;9518;51.720;14.384;2023-05-07T09:25:29;13.00;99.90
18779;DHT22;9518;51.720;14.384;2023-05-07T09:27:57;13.00;99.90
18779;DHT22;9518;51.720;14.384;2023-05-07T09:30:27;13.30;99.90
18779;DHT22;9518;51.720;14.384;2023-05-07T09:32:56;13.90;99.90
18779;DHT22;9518;51.720;14.384;2023-05-07T09:35:23;14.00;98.40
18779;DHT22;9518;51.720;14.384;2023-05-07T09:37:53;14.10;99.90
18779;DHT22;9518;51.720;14.384;2023-05-07T09:40:21;13.90;99.60
18779;DHT22;9518;51.720;14.384;2023-05-07T09:42:51;13.70;99.80
18779;DHT22;9518;51.720;14.384;2023-05-07T09:45:22;13.70;99.90
18779;DHT22;9518;51.720;14.384;2023-05-07T09:47:53;13.80;99.90
18779;DHT22;9518;51.720;14.384;2023-05-07T09:50:25;13.50;99.90
18779;DHT22;9518;51.720;14.384;2023-05-07T09:52:55;13.20;99.90
18779;DHT22;9518;51.720;14.384;2023-05-07T09:55:22;13.10;99.90
18779;DHT22;9518;51.720;14.384;2023-05-07T09:57:53;13.40;99.90
18779;DHT22;9518;51.720;14.384;2023-05-07T10:00:22;13.90;99.90
18779;DHT22;9518;51.720;14.384;2023-05-07T10:02:50;14.50;97.60
18779;DHT22;9518;51.720;14.384;2023-05-07T10:05:18;14.90;97.30
18779;DHT22;9518;51.720;14.384;2023-05-07T10:07:46;14.60;97.50
18779;DHT22;9518;51.720;14.384;2023-05-07T10:10:14;14.50;97.50
18779;DHT22;9518;51.720;14.384;2023-05-07T10:12:41;14.20;97.10
18779;DHT22;9518;51.720;14.384;2023-05-07T10:15:12;14.30;99.80
18779;DHT22;9518;51.720;14.384;2023-05-07T10:17:40;14.40;98.50
18779;DHT22;9518;51.720;14.384;2023-05-07T10:20:08;14.70;98.60
18779;DHT22;9518;51.720;14.384;2023-05-07T10:22:38;14.80;97.30
18779;DHT22;9518;51.720;14.384;2023-05-07T10:25:12;15.10;96.80
18779;DHT22;9518;51.720;14.384;2023-05-07T10:27:41;15.10;95.10
18779;DHT22;9518;51.720;14.384;2023-05-07T10:30:18;14.90;96.00
18779;DHT22;9518;51.720;14.384;2023-05-07T10:32:49;15.10;95.60
18779;DHT22;9518;51.720;14.384;2023-05-07T10:35:21;14.70;95.00
18779;DHT22;9518;51.720;14.384;2023-05-07T10:37:50;14.50;95.50
18779;DHT22;9518;51.720;14.384;2023-05-07T10:40:18;13.80;96.30
18779;DHT22;9518;51.720;14.384;2023-05-07T10:42:56;13.70;97.30
18779;DHT22;9518;51.720;14.384;2023-05-07T10:45:33;13.30;98.40
18779;DHT22;9518;51.720;14.384;2023-05-07T10:48:11;13.00;98.60
18779;DHT22;9518;51.720;14.384;2023-05-07T10:50:39;13.00;99.10
18779;DHT22;9518;51.720;14.384;2023-05-07T10:53:23;12.70;99.90
18779;DHT22;9518;51.720;14.384;2023-05-07T10:56:25;12.60;99.90
18779;DHT22;9518;51.720;14.384;2023-05-07T10:59:30;12.90;99.90
18779;DHT22;9518;51.720;14.384;2023-05-07T11:01:59;13.60;99.90
18779;DHT22;9518;51.720;14.384;2023-05-07T11:04:33;13.90;98.20
18779;DHT22;9518;51.720;14.384;2023-05-07T11:07:21;14.20;96.50
18779;DHT22;9518;51.720;14.384;2023-05-07T11:09:58;14.00;96.20
18779;DHT22;9518;51.720;14.384;2023-05-07T11:12:52;13.60;95.00
18779;DHT22;9518;51.720;14.384;2023-05-07T11:15:40;13.40;96.90
18779;DHT22;9518;51.720;14.384;2023-05-07T11:18:11;13.70;97.40
18779;DHT22;9518;51.720;14.384;2023-05-07T11:20:52;14.00;96.60
18779;DHT22;9518;51.720;14.384;2023-05-07T11:26:45;13.60;95.70
18779;DHT22;9518;51.720;14.384;2023-05-07T11:29:14;13.30;97.00
18779;DHT22;9518;51.720;14.384;2023-05-07T11:31:41;13.20;98.30
18779;DHT22;9518;51.720;14.384;2023-05-07T11:34:09;12.80;98.00
18779;DHT22;9518;51.720;14.384;2023-05-07T11:36:42;12.50;99.60
18779;DHT22;9518;51.720;14.384;2023-05-07T11:39:31;12.40;99.90
18779;DHT22;9518;51.720;14.384;2023-05-07T11:42:00;12.40;99.90
18779;DHT22;9518;51.720;14.384;2023-05-07T11:44:41;12.40;99.90
18779;DHT22;9518;51.720;14.384;2023-05-07T11:47:10;12.90;99.90
18779;DHT22;9518;51.720;14.384;2023-05-07T11:49:39;13.40;99.90
18779;DHT22;9518;51.720;14.384;2023-05-07T11:52:06;13.80;98.70
18779;DHT22;9518;51.720;14.384;2023-05-07T11:54:36;13.90;95.90
18779;DHT22;9518;51.720;14.384;2023-05-07T11:57:04;13.70;96.10
18779;DHT22;9518;51.720;14.384;2023-05-07T11:59:38;13.40;96.20
18779;DHT22;9518;51.720;14.384;2023-05-07T12:02:06;13.60;97.30
18779;DHT22;9518;51.720;14.384;2023-05-07T12:04:33;13.90;97.20
18779;DHT22;9518;51.720;14.384;2023-05-07T12:07:02;14.20;95.20
18779;DHT22;9518;51.720;14.384;2023-05-07T12:09:29;14.00;94.80
18779;DHT22;9518;51.720;14.384;2023-05-07T12:11:56;14.00;93.10
18779;DHT22;9518;51.720;14.384;2023-05-07T12:14:27;14.00;94.20
18779;DHT22;9518;51.720;14.384;2023-05-07T12:16:55;14.20;92.90
18779;DHT22;9518;51.720;14.384;2023-05-07T12:19:23;14.70;91.80
18779;DHT22;9518;51.720;14.384;2023-05-07T12:21:50;15.20;91.80
18779;DHT22;9518;51.720;14.384;2023-05-07T12:24:19;15.80;88.90
18779;DHT22;9518;51.720;14.384;2023-05-07T12:26:46;15.90;85.40
18779;DHT22;9518;51.720;14.384;2023-05-07T12:29:14;15.60;83.00
18779;DHT22;9518;51.720;14.384;2023-05-07T12:31:41;15.20;84.30
18779;DHT22;9518;51.720;14.384;2023-05-07T12:34:10;15.30;87.30
18779;DHT22;9518;51.720;14.384;2023-05-07T12:36:38;15.10;87.60
18779;DHT22;9518;51.720;14.384;2023-05-07T12:39:06;15.20;88.50
18779;DHT22;9518;51.720;14.384;2023-05-07T12:41:52;15.00;86.90
18779;DHT22;9518;51.720;14.384;2023-05-07T12:44:21;15.10;88.70
18779;DHT22;9518;51.720;14.384;2023-05-07T12:46:48;15.00;88.80
18779;DHT22;9518;51.720;14.384;2023-05-07T12:49:16;15.10;88.50
18779;DHT22;9518;51.720;14.384;2023-05-07T12:51:45;15.40;86.70
18779;DHT22;9518;51.720;14.384;2023-05-07T12:54:13;15.20;86.50
18779;DHT22;9518;51.720;14.384;2023-05-07T12:56:42;15.10;86.40
18779;DHT22;9518;51.720;14.384;2023-05-07T12:59:09;15.30;85.10
18779;DHT22;9518;51.720;14.384;2023-05-07T13:01:37;15.20;85.00
18779;DHT22;9518;51.720;14.384;2023-05-07T13:04:04;15.40;86.00
18779;DHT22;9518;51.720;14.384;2023-05-07T13:06:31;15.50;84.90
18779;DHT22;9518;51.720;14.384;2023-05-07T13:08:58;15.30;84.10
18779;DHT22;9518;51.720;14.384;2023-05-07T13:11:25;15.00;84.30
18779;DHT22;9518;51.720;14.384;2023-05-07T13:13:54;15.10;87.80
18779;DHT22;9518;51.720;14.384;2023-05-07T13:16:21;15.00;84.60
18779;DHT22;9518;51.720;14.384;2023-05-07T13:18:48;15.30;84.90
18779;DHT22;9518;51.720;14.384;2023-05-07T13:21:15;15.80;89.00
18779;DHT22;9518;51.720;14.384;2023-05-07T13:23:42;16.20;79.80
18779;DHT22;9518;51.720;14.384;2023-05-07T13:26:10;16.30;83.20
18779;DHT22;9518;51.720;14.384;2023-05-07T13:28:37;15.90;80.10
18779;DHT22;9518;51.720;14.384;2023-05-07T13:31:06;15.60;82.00
18779;DHT22;9518;51.720;14.384;2023-05-07T13:33:33;15.20;83.50
18779;DHT22;9518;51.720;14.384;2023-05-07T13:36:00;14.70;85.30
18779;DHT22;9518;51.720;14.384;2023-05-07T13:38:30;14.70;86.20
18779;DHT22;9518;51.720;14.384;2023-05-07T13:40:57;14.50;87.10
18779;DHT22;9518;51.720;14.384;2023-05-07T13:43:25;14.30;86.40
18779;DHT22;9518;51.720;14.384;2023-05-07T13:45:52;14.20;87.90
18779;DHT22;9518;51.720;14.384;2023-05-07T13:48:20;14.20;87.00
18779;DHT22;9518;51.720;14.384;2023-05-07T13:50:47;14.30;90.60
18779;DHT22;9518;51.720;14.384;2023-05-07T13:53:15;14.50;89.50
18779;DHT22;9518;51.720;14.384;2023-05-07T13:55:43;14.60;88.00
18779;DHT22;9518;51.720;14.384;2023-05-07T13:58:11;14.40;86.70
18779;DHT22;9518;51.720;14.384;2023-05-07T14:00:38;14.20;89.10
18779;DHT22;9518;51.720;14.384;2023-05-07T14:03:05;14.20;88.30
18779;DHT22;9518;51.720;14.384;2023-05-07T14:05:35;13.90;88.30
18779;DHT22;9518;51.720;14.384;2023-05-07T14:08:02;13.90;89.50
18779;DHT22;9518;51.720;14.384;2023-05-07T14:10:30;13.70;88.70
18779;DHT22;9518;51.720;14.384;2023-05-07T14:13:00;13.60;90.50
18779;DHT22;9518;51.720;14.384;2023-05-07T14:15:27;13.50;91.20
18779;DHT22;9518;51.720;14.384;2023-05-07T14:17:54;13.50;91.30
18779;DHT22;9518;51.720;14.384;2023-05-07T14:20:23;13.40;91.20
18779;DHT22;9518;51.720;14.384;2023-05-07T14:22:51;13.10;91.70
18779;DHT22;9518;51.720;14.384;2023-05-07T14:25:18;13.10;92.50
18779;DHT22;9518;51.720;14.384;2023-05-07T14:27:45;13.10;92.40
18779;DHT22;9518;51.720;14.384;2023-05-07T14:30:13;13.20;92.80
18779;DHT22;9518;51.720;14.384;2023-05-07T14:32:40;13.60;93.10
18779;DHT22;9518;51.720;14.384;2023-05-07T14:35:08;13.80;92.00
18779;DHT22;9518;51.720;14.384;2023-05-07T14:37:35;13.90;90.90
18779;DHT22;9518;51.720;14.384;2023-05-07T14:40:05;13.80;91.00
18779;DHT22;9518;51.720;14.384;2023-05-07T14:42:33;13.60;90.10
18779;DHT22;9518;51.720;14.384;2023-05-07T14:45:00;13.50;91.10
18779;DHT22;9518;51.720;14.384;2023-05-07T14:47:27;13.40;90.80
18779;DHT22;9518;51.720;14.384;2023-05-07T14:49:55;13.40;90.70
18779;DHT22;9518;51.720;14.384;2023-05-07T14:52:22;13.30;91.00
18779;DHT22;9518;51.720;14.384;2023-05-07T14:54:50;13.10;90.90
18779;DHT22;9518;51.720;14.384;2023-05-07T14:57:19;13.00;90.80
18779;DHT22;9518;51.720;14.384;2023-05-07T14:59:50;12.90;91.90
18779;DHT22;9518;51.720;14.384;2023-05-07T15:02:17;12.80;92.70
18779;DHT22;9518;51.720;14.384;2023-05-07T15:04:44;12.70;92.60
18779;DHT22;9518;51.720;14.384;2023-05-07T15:07:12;12.40;91.70
18779;DHT22;9518;51.720;14.384;2023-05-07T15:09:41;12.40;92.80
18779;DHT22;9518;51.720;14.384;2023-05-07T15:12:09;12.50;93.50
18779;DHT22;9518;51.720;14.384;2023-05-07T15:14:39;12.50;92.60
18779;DHT22;9518;51.720;14.384;2023-05-07T15:17:06;12.60;93.30
18779;DHT22;9518;51.720;14.384;2023-05-07T15:19:33;12.80;93.60
18779;DHT22;9518;51.720;14.384;2023-05-07T15:22:00;12.70;91.70
18779;DHT22;9518;51.720;14.384;2023-05-07T15:24:28;12.70;91.40
18779;DHT22;9518;51.720;14.384;2023-05-07T15:26:56;12.60;91.60
18779;DHT22;9518;51.720;14.384;2023-05-07T15:29:23;12.50;93.00
18779;DHT22;9518;51.720;14.384;2023-05-07T15:31:52;12.50;92.40
18779;DHT22;9518;51.720;14.384;2023-05-07T15:34:20;12.40;92.30
18779;DHT22;9518;51.720;14.384;2023-05-07T15:36:47;12.50;92.80
18779;DHT22;9518;51.720;14.384;2023-05-07T15:39:15;12.50;92.10
18779;DHT22;9518;51.720;14.384;2023-05-07T15:41:42;12.40;92.50
18779;DHT22;9518;51.720;14.384;2023-05-07T15:44:09;12.30;93.00
18779;DHT22;9518;51.720;14.384;2023-05-07T15:46:37;12.30;92.80
18779;DHT22;9518;51.720;14.384;2023-05-07T15:49:05;12.30;93.30